createdAt,value
2018-08-31T00:02:04.512Z,2.20
2018-08-31T00:04:44.682Z,2.17
2018-08-31T00:07:31.870Z,2.60
2018-08-31T00:12:39.316Z,2.00
2018-08-31T00:15:08.259Z,2.20
2018-08-31T00:17:37.864Z,2.57
2018-08-31T00:20:06.452Z,2.30
2018-08-31T00:22:35.032Z,2.40
2018-08-31T00:26:17.311Z,2.30
2018-08-31T00:29:45.349Z,2.30
2018-08-31T00:32:25.256Z,2.00
2018-08-31T00:36:02.396Z,2.07
2018-08-31T00:39:01.839Z,2.37
2018-08-31T00:42:46.567Z,2.30
2018-08-31T00:45:35.644Z,2.40
2018-08-31T00:48:04.518Z,2.13
2018-08-31T00:50:33.225Z,2.10
2018-08-31T00:53:02.111Z,2.23
2018-08-31T00:55:30.801Z,2.03
2018-08-31T00:57:59.313Z,2.50
2018-08-31T01:00:27.777Z,2.70
2018-08-31T01:02:56.267Z,2.20
2018-08-31T01:05:24.806Z,2.13
2018-08-31T01:07:53.293Z,2.30
2018-08-31T01:10:22.909Z,2.10
2018-08-31T01:12:51.803Z,1.97
2018-08-31T01:15:20.292Z,2.10
2018-08-31T01:17:48.750Z,2.30
2018-08-31T01:20:17.250Z,2.10
2018-08-31T01:22:45.727Z,1.80
2018-08-31T01:25:14.253Z,2.13
2018-08-31T01:27:42.740Z,2.37
2018-08-31T01:30:11.280Z,2.10
2018-08-31T01:32:39.810Z,2.17
2018-08-31T01:35:08.353Z,2.40
2018-08-31T01:37:36.832Z,2.30
2018-08-31T01:40:05.490Z,2.20
2018-08-31T01:42:34.029Z,2.07
2018-08-31T01:45:03.496Z,2.10
2018-08-31T01:47:32.163Z,2.10
2018-08-31T01:50:00.611Z,1.73
2018-08-31T01:52:29.058Z,1.90
2018-08-31T01:54:57.692Z,1.70
2018-08-31T01:57:26.154Z,2.00
2018-08-31T01:59:54.694Z,1.70
2018-08-31T02:02:24.181Z,2.00
2018-08-31T02:04:53.441Z,2.00
2018-08-31T02:07:21.890Z,1.77
2018-08-31T02:09:50.402Z,2.00
2018-08-31T02:12:18.920Z,1.83
2018-08-31T02:14:47.430Z,2.07
2018-08-31T02:17:15.959Z,1.97
2018-08-31T02:19:44.594Z,1.63
2018-08-31T02:22:13.081Z,2.20
2018-08-31T02:24:41.553Z,1.57
2018-08-31T02:27:10.143Z,2.03
2018-08-31T02:29:38.701Z,1.67
2018-08-31T02:32:07.189Z,1.70
2018-08-31T02:34:35.734Z,1.80
2018-08-31T02:37:04.212Z,1.60
2018-08-31T02:39:32.755Z,2.37
2018-08-31T02:42:01.323Z,1.67
2018-08-31T02:44:29.810Z,1.60
2018-08-31T02:46:58.340Z,1.60
2018-08-31T02:49:26.801Z,2.10
2018-08-31T02:51:55.266Z,1.70
2018-08-31T02:54:23.772Z,1.87
2018-08-31T02:56:52.281Z,1.87
2018-08-31T02:59:20.750Z,2.00
2018-08-31T03:01:49.242Z,2.10
2018-08-31T03:04:17.854Z,2.17
2018-08-31T03:06:46.467Z,2.10
2018-08-31T03:09:15.075Z,2.37
2018-08-31T03:11:43.634Z,2.17
2018-08-31T03:14:12.171Z,2.43
2018-08-31T03:16:40.661Z,2.33
2018-08-31T03:19:09.223Z,1.80
2018-08-31T03:21:37.714Z,1.60
2018-08-31T03:24:06.246Z,2.10
2018-08-31T03:26:34.804Z,2.43
2018-08-31T03:29:03.307Z,2.83
2018-08-31T03:31:31.792Z,2.00
2018-08-31T03:34:00.322Z,2.57
2018-08-31T03:36:28.784Z,2.60
2018-08-31T03:38:57.316Z,2.70
2018-08-31T03:41:25.839Z,1.97
2018-08-31T03:43:54.345Z,2.30
2018-08-31T03:46:22.861Z,2.73
2018-08-31T03:48:51.329Z,2.10
2018-08-31T03:51:19.818Z,2.80
2018-08-31T03:53:48.397Z,3.03
2018-08-31T03:56:16.971Z,2.27
2018-08-31T03:58:45.532Z,2.47
2018-08-31T04:01:14.139Z,3.27
2018-08-31T04:03:42.713Z,2.67
2018-08-31T04:06:11.229Z,2.57
2018-08-31T04:08:39.685Z,2.50
2018-08-31T04:11:08.346Z,3.33
2018-08-31T04:13:36.879Z,3.10
2018-08-31T04:16:06.038Z,2.77
2018-08-31T04:18:34.630Z,2.83
2018-08-31T04:21:03.141Z,2.87
2018-08-31T04:23:31.688Z,2.90
2018-08-31T04:26:00.331Z,3.23
2018-08-31T04:28:28.874Z,2.40
2018-08-31T04:30:57.342Z,2.60
2018-08-31T04:33:25.854Z,2.13
2018-08-31T04:35:54.411Z,1.90
2018-08-31T04:38:22.980Z,2.80
2018-08-31T04:40:51.530Z,2.43
2018-08-31T04:43:20.110Z,2.23
2018-08-31T04:45:48.635Z,2.30
2018-08-31T04:48:17.121Z,1.60
2018-08-31T04:50:45.756Z,2.03
2018-08-31T04:53:14.227Z,2.00
2018-08-31T04:55:42.747Z,2.10
2018-08-31T04:58:11.293Z,2.33
2018-08-31T05:00:40.452Z,1.83
2018-08-31T05:03:09.030Z,2.30
2018-08-31T05:05:37.771Z,2.10
2018-08-31T05:08:06.398Z,3.03
2018-08-31T05:10:34.980Z,3.27
2018-08-31T05:13:03.547Z,2.67
2018-08-31T05:15:32.094Z,2.17
2018-08-31T05:18:02.587Z,1.97
2018-08-31T05:20:31.332Z,1.70
2018-08-31T05:22:59.963Z,2.33
2018-08-31T05:25:28.444Z,1.57
2018-08-31T05:27:56.960Z,1.77
2018-08-31T05:30:25.485Z,1.60
2018-08-31T05:32:54.051Z,1.87
2018-08-31T05:35:22.728Z,1.87
2018-08-31T05:37:51.274Z,3.30
2018-08-31T05:40:19.842Z,2.00
2018-08-31T05:42:48.482Z,2.20
2018-08-31T05:45:17.004Z,2.00
2018-08-31T05:47:45.548Z,1.80
2018-08-31T05:50:14.747Z,1.80
2018-08-31T05:52:43.578Z,2.23
2018-08-31T05:55:12.139Z,2.03
2018-08-31T05:57:40.806Z,2.40
2018-08-31T06:00:09.581Z,2.53
2018-08-31T06:02:38.160Z,2.40
2018-08-31T06:05:06.688Z,1.57
2018-08-31T06:07:35.192Z,2.30
2018-08-31T06:10:03.974Z,2.33
2018-08-31T06:12:32.687Z,2.40
2018-08-31T06:15:01.243Z,2.97
2018-08-31T06:17:29.803Z,2.00
2018-08-31T06:19:58.610Z,2.87
2018-08-31T06:22:27.253Z,1.97
2018-08-31T06:24:55.966Z,1.73
2018-08-31T06:27:24.682Z,2.23
2018-08-31T06:29:54.078Z,2.10
2018-08-31T06:32:22.737Z,1.60
2018-08-31T06:34:51.292Z,1.80
2018-08-31T06:37:20.081Z,2.07
2018-08-31T06:39:49.587Z,1.73
2018-08-31T06:42:18.337Z,1.70
2018-08-31T06:44:47.013Z,1.70
2018-08-31T06:47:15.612Z,1.63
2018-08-31T06:49:44.098Z,2.13
2018-08-31T06:52:12.638Z,1.47
2018-08-31T06:54:41.218Z,1.80
2018-08-31T06:57:09.760Z,1.70
2018-08-31T06:59:38.367Z,1.17
2018-08-31T07:02:07.028Z,1.37
2018-08-31T07:04:35.619Z,1.70
2018-08-31T07:07:04.214Z,1.80
2018-08-31T07:09:33.010Z,1.77
2018-08-31T07:12:01.641Z,1.70
2018-08-31T07:14:30.321Z,1.63
2018-08-31T07:16:58.984Z,1.43
2018-08-31T07:19:27.616Z,1.00
2018-08-31T07:21:56.263Z,1.00
2018-08-31T07:24:24.985Z,1.37
2018-08-31T07:26:53.716Z,1.20
2018-08-31T07:29:22.218Z,1.47
2018-08-31T07:31:50.870Z,1.33
2018-08-31T07:34:19.396Z,1.73
2018-08-31T07:36:47.918Z,1.33
2018-08-31T07:39:16.423Z,1.80
2018-08-31T07:41:44.950Z,2.07
2018-08-31T07:44:13.550Z,2.03
2018-08-31T07:46:42.039Z,1.60
2018-08-31T07:49:10.525Z,2.00
2018-08-31T07:51:39.113Z,1.73
2018-08-31T07:54:09.127Z,1.63
2018-08-31T07:56:38.121Z,1.70
2018-08-31T07:59:08.075Z,2.00
2018-08-31T08:01:36.702Z,1.50
2018-08-31T08:04:05.353Z,1.90
2018-08-31T08:06:34.118Z,1.43
2018-08-31T08:09:02.638Z,1.20
2018-08-31T08:11:31.247Z,1.30
2018-08-31T08:13:59.895Z,1.47
2018-08-31T08:16:28.431Z,2.00
2018-08-31T08:18:57.074Z,1.30
2018-08-31T08:21:25.640Z,1.40
2018-08-31T08:23:54.279Z,1.67
2018-08-31T08:26:22.783Z,1.73
2018-08-31T08:28:51.240Z,1.07
2018-08-31T08:31:19.662Z,1.10
2018-08-31T08:33:48.143Z,1.20
2018-08-31T08:36:16.646Z,1.20
2018-08-31T08:38:45.112Z,1.20
2018-08-31T08:41:13.645Z,1.00
2018-08-31T08:43:42.111Z,1.10
2018-08-31T08:46:11.558Z,1.20
2018-08-31T08:48:40.277Z,1.20
2018-08-31T08:51:10.014Z,1.00
2018-08-31T08:53:38.474Z,0.77
2018-08-31T08:56:07.347Z,0.87
2018-08-31T08:58:36.517Z,1.03
2018-08-31T09:01:05.001Z,1.13
2018-08-31T09:03:33.588Z,1.30
2018-08-31T09:06:02.249Z,1.00
2018-08-31T09:08:31.728Z,1.57
2018-08-31T09:11:00.514Z,1.13
2018-08-31T09:13:29.188Z,1.10
2018-08-31T09:15:58.188Z,1.03
2018-08-31T09:18:28.590Z,1.07
2018-08-31T09:20:57.752Z,1.00
2018-08-31T09:23:27.381Z,1.10
2018-08-31T09:25:58.544Z,1.10
2018-08-31T09:28:27.553Z,0.90
2018-08-31T09:30:56.235Z,1.10
2018-08-31T09:33:24.993Z,1.60
2018-08-31T09:35:53.583Z,1.27
2018-08-31T09:38:22.160Z,1.13
2018-08-31T09:40:50.788Z,1.10
2018-08-31T09:43:19.474Z,1.10
2018-08-31T09:45:48.100Z,1.17
2018-08-31T09:48:16.711Z,0.93
2018-08-31T09:50:45.275Z,1.13
2018-08-31T09:53:13.820Z,1.20
2018-08-31T09:55:42.373Z,1.10
2018-08-31T09:58:10.974Z,0.80
2018-08-31T10:00:44.841Z,1.37
2018-08-31T10:03:19.016Z,1.20
2018-08-31T10:05:47.657Z,1.33
2018-08-31T10:08:16.249Z,1.23
2018-08-31T10:10:44.971Z,0.93
2018-08-31T10:13:13.562Z,1.03
2018-08-31T10:15:42.831Z,0.60
2018-08-31T10:18:11.530Z,0.60
2018-08-31T10:20:40.050Z,0.90
2018-08-31T10:23:08.575Z,0.93
2018-08-31T10:25:38.001Z,1.13
2018-08-31T10:28:06.897Z,0.97
2018-08-31T10:30:35.624Z,0.77
2018-08-31T10:33:04.189Z,0.70
2018-08-31T10:35:32.740Z,0.70
2018-08-31T10:38:01.435Z,0.80
2018-08-31T10:40:29.960Z,0.90
2018-08-31T10:42:58.630Z,0.93
2018-08-31T10:45:27.102Z,0.73
2018-08-31T10:47:55.837Z,0.60
2018-08-31T10:50:24.349Z,0.60
2018-08-31T10:52:52.839Z,0.80
2018-08-31T10:55:21.465Z,0.73
2018-08-31T10:57:49.995Z,0.90
2018-08-31T11:00:18.544Z,0.87
2018-08-31T11:02:47.128Z,0.47
2018-08-31T11:05:16.045Z,0.80
2018-08-31T11:07:44.507Z,0.60
2018-08-31T11:10:13.733Z,1.03
2018-08-31T11:12:42.357Z,0.50
2018-08-31T11:15:10.762Z,0.83
2018-08-31T11:17:39.591Z,0.83
2018-08-31T11:20:08.090Z,0.70
2018-08-31T11:22:36.677Z,0.87
2018-08-31T11:25:05.320Z,0.70
2018-08-31T11:27:33.826Z,0.73
2018-08-31T11:30:02.321Z,0.80
2018-08-31T11:32:31.271Z,0.50
2018-08-31T11:34:59.839Z,0.90
2018-08-31T11:37:28.336Z,0.60
2018-08-31T11:39:56.889Z,1.00
2018-08-31T11:42:25.427Z,0.70
2018-08-31T11:44:54.010Z,0.90
2018-08-31T11:47:22.479Z,0.70
2018-08-31T11:49:51.028Z,0.60
2018-08-31T11:52:19.625Z,0.90
2018-08-31T11:54:48.153Z,1.20
2018-08-31T11:57:16.777Z,1.00
2018-08-31T11:59:45.243Z,0.87
2018-08-31T12:02:13.807Z,1.17
2018-08-31T12:04:42.348Z,0.67
2018-08-31T12:07:10.892Z,0.60
2018-08-31T12:09:39.446Z,0.90
2018-08-31T12:12:07.975Z,0.73
2018-08-31T12:14:36.512Z,0.90
2018-08-31T12:17:05.058Z,0.90
2018-08-31T12:19:33.761Z,0.80
2018-08-31T12:22:02.423Z,0.73
2018-08-31T12:24:30.907Z,0.60
2018-08-31T12:26:59.574Z,0.70
2018-08-31T12:29:28.779Z,0.67
2018-08-31T12:31:57.500Z,0.60
2018-08-31T12:34:26.067Z,0.70
2018-08-31T12:36:54.724Z,0.83
2018-08-31T12:39:23.553Z,0.70
2018-08-31T12:41:52.191Z,0.80
2018-08-31T12:44:20.836Z,0.77
2018-08-31T12:46:49.529Z,0.90
2018-08-31T12:49:18.163Z,0.60
2018-08-31T12:51:46.864Z,0.77
2018-08-31T12:54:15.519Z,0.60
2018-08-31T12:56:44.088Z,0.60
2018-08-31T12:59:12.807Z,0.70
2018-08-31T13:01:41.379Z,0.60
2018-08-31T13:04:09.991Z,0.60
2018-08-31T13:06:38.747Z,0.67
2018-08-31T13:09:08.063Z,0.80
2018-08-31T13:11:37.275Z,0.90
2018-08-31T13:14:06.094Z,0.90
2018-08-31T13:16:34.736Z,0.80
2018-08-31T13:19:03.370Z,0.57
2018-08-31T13:21:31.998Z,0.70
2018-08-31T13:24:01.092Z,0.60
2018-08-31T13:26:30.590Z,1.00
2018-08-31T13:28:59.581Z,0.77
2018-08-31T13:31:28.782Z,0.73
2018-08-31T13:33:57.685Z,0.70
2018-08-31T13:36:26.699Z,0.90
2018-08-31T13:38:55.661Z,0.80
2018-08-31T13:41:24.558Z,0.67
2018-08-31T13:43:54.326Z,0.60
2018-08-31T13:46:24.313Z,1.00
2018-08-31T13:48:52.898Z,0.90
2018-08-31T13:51:24.810Z,0.63
2018-08-31T13:53:53.712Z,0.70
2018-08-31T13:56:22.738Z,0.93
2018-08-31T13:58:51.382Z,0.93
2018-08-31T14:01:20.047Z,1.00
2018-08-31T14:03:48.939Z,0.70
2018-08-31T14:06:17.828Z,0.80
2018-08-31T14:08:46.511Z,0.67
2018-08-31T14:11:15.713Z,0.50
2018-08-31T14:13:47.913Z,0.70
2018-08-31T14:16:16.669Z,1.77
2018-08-31T14:18:45.353Z,0.80
2018-08-31T14:21:16.915Z,0.90
2018-08-31T14:23:45.660Z,1.10
2018-08-31T14:26:14.691Z,0.80
2018-08-31T14:28:43.686Z,0.73
2018-08-31T14:31:12.738Z,0.77
2018-08-31T14:33:41.503Z,0.80
2018-08-31T14:36:10.243Z,0.60
2018-08-31T14:38:39.707Z,0.67
2018-08-31T14:41:08.639Z,0.90
2018-08-31T14:43:37.613Z,1.10
2018-08-31T14:46:06.372Z,0.98
2018-08-31T14:48:35.313Z,0.90
2018-08-31T14:51:04.946Z,0.87
2018-08-31T14:53:33.768Z,1.00
2018-08-31T14:56:03.423Z,1.10
2018-08-31T14:58:32.128Z,1.00
2018-08-31T15:01:00.676Z,0.80
2018-08-31T15:03:29.404Z,0.90
2018-08-31T15:05:58.379Z,0.80
2018-08-31T15:08:27.263Z,0.80
2018-08-31T15:10:56.017Z,0.87
2018-08-31T15:13:25.233Z,0.73
2018-08-31T15:15:54.107Z,1.33
2018-08-31T15:18:22.827Z,0.80
2018-08-31T15:20:51.642Z,0.90
2018-08-31T15:23:20.285Z,1.67
2018-08-31T15:25:49.106Z,1.20
2018-08-31T15:28:17.694Z,0.90
2018-08-31T15:30:46.385Z,1.03
2018-08-31T15:33:14.881Z,0.80
2018-08-31T15:35:43.665Z,0.70
2018-08-31T15:38:12.356Z,0.70
2018-08-31T15:40:41.427Z,0.80
2018-08-31T15:43:10.454Z,1.23
2018-08-31T15:45:39.200Z,0.90
2018-08-31T15:48:08.101Z,0.97
2018-08-31T15:50:37.249Z,0.60
2018-08-31T15:53:06.039Z,1.10
2018-08-31T15:55:34.633Z,1.20
2018-08-31T15:58:03.383Z,0.87
2018-08-31T16:00:33.042Z,0.80
2018-08-31T16:03:32.458Z,1.10
2018-08-31T16:06:01.042Z,0.90
2018-08-31T16:08:29.731Z,1.00
2018-08-31T16:10:58.449Z,1.10
2018-08-31T16:13:27.176Z,0.90
2018-08-31T16:15:55.986Z,0.70
2018-08-31T16:19:27.501Z,0.73
2018-08-31T16:21:56.261Z,0.73
2018-08-31T16:24:24.917Z,1.00
2018-08-31T16:26:53.609Z,0.63
2018-08-31T16:29:22.337Z,0.90
2018-08-31T16:31:50.950Z,0.80
2018-08-31T16:34:19.612Z,0.80
2018-08-31T16:36:48.914Z,0.87
2018-08-31T16:39:17.588Z,1.07
2018-08-31T16:41:46.239Z,0.80
2018-08-31T16:44:14.787Z,0.90
2018-08-31T16:46:43.373Z,0.87
2018-08-31T16:49:11.979Z,1.07
2018-08-31T16:51:40.675Z,1.00
2018-08-31T16:54:09.354Z,0.90
2018-08-31T16:56:38.050Z,0.90
2018-08-31T16:59:06.903Z,0.73
2018-08-31T17:01:38.128Z,0.90
2018-08-31T17:04:06.786Z,1.10
2018-08-31T17:06:35.392Z,1.13
2018-08-31T17:09:07.580Z,1.70
2018-08-31T17:11:36.556Z,1.10
2018-08-31T17:14:05.318Z,1.40
2018-08-31T17:16:34.030Z,0.73
2018-08-31T17:19:02.595Z,0.77
2018-08-31T17:21:31.325Z,2.20
2018-08-31T17:24:00.478Z,1.20
2018-08-31T17:26:34.169Z,0.83
2018-08-31T17:29:08.037Z,1.00
2018-08-31T17:31:41.894Z,1.00
2018-08-31T17:34:15.849Z,0.80
2018-08-31T17:36:49.796Z,1.00
2018-08-31T17:39:18.507Z,1.17
2018-08-31T17:41:47.201Z,1.00
2018-08-31T17:44:15.845Z,1.17
2018-08-31T17:46:44.544Z,0.87
2018-08-31T17:49:13.206Z,1.00
2018-08-31T17:51:41.782Z,1.00
2018-08-31T17:54:10.342Z,1.00
2018-08-31T17:56:38.917Z,1.00
2018-08-31T17:59:07.491Z,0.83
2018-08-31T18:01:35.982Z,1.40
2018-08-31T18:04:04.633Z,0.90
2018-08-31T18:06:33.278Z,0.80
2018-08-31T18:09:02.007Z,1.23
2018-08-31T18:11:30.680Z,1.03
2018-08-31T18:13:59.337Z,1.10
2018-08-31T18:16:28.086Z,0.90
2018-08-31T18:18:56.697Z,1.13
2018-08-31T18:21:25.357Z,1.30
2018-08-31T18:23:53.965Z,0.90
2018-08-31T18:26:22.522Z,1.13
2018-08-31T18:28:51.050Z,1.33
2018-08-31T18:31:19.757Z,1.20
2018-08-31T18:33:48.339Z,1.47
2018-08-31T18:36:16.957Z,1.07
2018-08-31T18:38:45.517Z,1.83
2018-08-31T18:41:14.064Z,1.17
2018-08-31T18:43:42.563Z,1.87
2018-08-31T18:46:11.150Z,1.23
2018-08-31T18:48:39.793Z,1.10
2018-08-31T18:51:08.468Z,1.20
2018-08-31T18:53:37.138Z,1.10
2018-08-31T18:56:05.669Z,1.33
2018-08-31T18:58:34.379Z,1.50
2018-08-31T19:01:03.013Z,1.60
2018-08-31T19:03:31.530Z,1.80
2018-08-31T19:06:00.148Z,1.50
2018-08-31T19:08:28.787Z,1.50
2018-08-31T19:10:57.548Z,1.60
2018-08-31T19:13:26.314Z,1.67
2018-08-31T19:15:55.014Z,4.33
2018-08-31T19:18:23.572Z,9.37
2018-08-31T19:20:52.166Z,8.77
2018-08-31T19:23:20.716Z,9.87
2018-08-31T19:25:49.279Z,6.93
2018-08-31T19:28:17.917Z,6.83
2018-08-31T19:30:46.565Z,7.50
2018-08-31T19:33:15.195Z,7.77
2018-08-31T19:35:43.768Z,7.60
2018-08-31T19:38:12.606Z,7.03
2018-08-31T19:40:41.505Z,6.00
2018-08-31T19:43:10.148Z,5.53
2018-08-31T19:45:38.939Z,5.03
2018-08-31T19:48:07.547Z,4.50
2018-08-31T19:50:36.761Z,4.00
2018-08-31T19:53:05.452Z,2.70
2018-08-31T19:55:34.015Z,2.67
2018-08-31T19:58:02.678Z,2.97
2018-08-31T20:00:31.245Z,2.33
2018-08-31T20:02:59.823Z,2.43
2018-08-31T20:05:28.458Z,2.30
2018-08-31T20:07:56.998Z,2.40
2018-08-31T20:10:25.560Z,2.50
2018-08-31T20:12:54.223Z,3.00
2018-08-31T20:15:22.738Z,2.53
2018-08-31T20:17:51.355Z,2.37
2018-08-31T20:20:19.964Z,2.70
2018-08-31T20:22:48.647Z,2.70
2018-08-31T20:25:17.300Z,2.97
2018-08-31T20:27:45.901Z,2.57
2018-08-31T20:30:14.556Z,2.93
2018-08-31T20:32:43.143Z,2.67
2018-08-31T20:35:11.722Z,2.93
2018-08-31T20:37:40.327Z,2.83
2018-08-31T20:40:08.920Z,2.50
2018-08-31T20:42:37.524Z,2.90
2018-08-31T20:45:06.980Z,2.77
2018-08-31T20:47:35.556Z,3.13
2018-08-31T20:50:04.169Z,3.13
2018-08-31T20:52:32.809Z,3.10
2018-08-31T20:55:01.550Z,2.87
2018-08-31T20:57:30.076Z,3.23
2018-08-31T20:59:58.674Z,3.30
2018-08-31T21:02:27.424Z,2.80
2018-08-31T21:04:55.970Z,2.70
2018-08-31T21:07:24.546Z,2.70
2018-08-31T21:09:53.065Z,2.40
2018-08-31T21:12:21.677Z,2.40
2018-08-31T21:14:50.258Z,2.67
2018-08-31T21:17:18.821Z,5.17
2018-08-31T21:19:47.388Z,7.80
2018-08-31T21:22:16.022Z,5.43
2018-08-31T21:24:44.542Z,5.20
2018-08-31T21:27:13.079Z,4.43
2018-08-31T21:29:41.592Z,4.63
2018-08-31T21:32:10.197Z,4.50
2018-08-31T21:34:38.713Z,4.57
2018-08-31T21:37:07.239Z,4.67
2018-08-31T21:39:35.886Z,4.60
2018-08-31T21:42:04.694Z,4.43
2018-08-31T21:44:33.204Z,3.67
2018-08-31T21:47:01.786Z,4.00
2018-08-31T21:49:41.171Z,4.30
2018-08-31T21:52:09.801Z,3.80
2018-08-31T21:54:38.740Z,3.90
2018-08-31T21:57:07.518Z,4.10
2018-08-31T21:59:36.049Z,4.23
2018-08-31T22:02:04.647Z,4.03
2018-08-31T22:04:33.171Z,4.53
2018-08-31T22:07:01.723Z,3.40
2018-08-31T22:09:30.301Z,4.43
2018-08-31T22:11:58.793Z,3.97
2018-08-31T22:14:27.400Z,4.73
2018-08-31T22:16:56.000Z,4.23
2018-08-31T22:19:24.598Z,3.77
2018-08-31T22:21:53.152Z,3.70
2018-08-31T22:24:21.715Z,3.70
2018-08-31T22:26:50.367Z,3.87
2018-08-31T22:29:18.995Z,3.93
2018-08-31T22:31:47.548Z,4.67
2018-08-31T22:34:16.169Z,4.10
2018-08-31T22:36:44.774Z,3.87
2018-08-31T22:39:13.252Z,4.60
2018-08-31T22:41:41.829Z,4.60
2018-08-31T22:44:10.397Z,4.90
2018-08-31T22:49:24.994Z,4.70
2018-08-31T22:51:53.558Z,4.20
2018-08-31T22:54:22.106Z,4.03
2018-08-31T22:56:50.689Z,3.90
2018-08-31T22:59:19.299Z,4.50
2018-08-31T23:01:47.846Z,3.77
2018-08-31T23:04:28.409Z,3.90
2018-08-31T23:06:56.964Z,4.07
2018-08-31T23:09:25.571Z,3.87
2018-08-31T23:11:54.123Z,2.83
2018-08-31T23:14:22.672Z,3.40
2018-08-31T23:16:51.283Z,3.50
2018-08-31T23:19:19.788Z,3.97
2018-08-31T23:21:48.341Z,3.83
2018-08-31T23:24:16.832Z,3.47
2018-08-31T23:26:45.336Z,3.80
2018-08-31T23:29:13.814Z,3.63
2018-08-31T23:31:42.416Z,3.20
2018-08-31T23:34:10.941Z,3.10
2018-08-31T23:36:39.441Z,2.80
2018-08-31T23:39:08.653Z,3.80
2018-08-31T23:41:37.195Z,3.33
2018-08-31T23:44:06.207Z,4.20
2018-08-31T23:46:34.692Z,4.33
2018-08-31T23:49:03.352Z,3.60
2018-08-31T23:51:31.853Z,3.80
2018-08-31T23:54:00.550Z,4.40
2018-08-31T23:56:29.159Z,4.50
2018-08-31T23:58:57.723Z,3.90
